Clay City, Illinois
Current Conditions -  °F | °C
As of 1:15 PM on Saturday 25 Oct 2014 (Local Time) from KFOA Reporting Station
Clear Clear  
Wind Chill: 76°   Ceiling: Unl
Heat Index: 76°   Visibility: 10mi
Dew Point: 55°   Wind: 5mph
Humidity: 48%   Direction: 280°W
Pressure: 29.99"   Gusts: NA
Location:  38.69°N, 88.35°W
Report Text: KFOA 251815Z AUTO 28004KT 10SM CLR 24/13 A2999 RMK AO2 T02430126
Loading
Personal Weather Stations






























Interactive Weather Map
Tropical Storm Tracking
New forecast layout! Learn more

10-Day Weather Forecast

Advertisements
Track Severe Weather on mobile